sensor_id;sensor_type;location;lat;lon;timestamp;pressure;altitude;pressure_sealevel;temperature
19061;BMP280;9663;48.996;8.334;2023-04-06T00:02:08;100595.03;;;7.27
19061;BMP280;9663;48.996;8.334;2023-04-06T00:04:34;100589.94;;;7.21
19061;BMP280;9663;48.996;8.334;2023-04-06T00:07:00;100582.25;;;7.15
19061;BMP280;9663;48.996;8.334;2023-04-06T00:09:26;100583.91;;;7.12
19061;BMP280;9663;48.996;8.334;2023-04-06T00:11:52;100588.88;;;7.07
19061;BMP280;9663;48.996;8.334;2023-04-06T00:14:17;100578.69;;;7.00
19061;BMP280;9663;48.996;8.334;2023-04-06T00:16:43;100592.91;;;6.95
19061;BMP280;9663;48.996;8.334;2023-04-06T00:19:09;100588.59;;;6.88
19061;BMP280;9663;48.996;8.334;2023-04-06T00:21:35;100579.19;;;6.78
19061;BMP280;9663;48.996;8.334;2023-04-06T00:24:00;100585.84;;;6.76
19061;BMP280;9663;48.996;8.334;2023-04-06T00:26:27;100583.25;;;6.70
19061;BMP280;9663;48.996;8.334;2023-04-06T00:28:53;100575.53;;;6.61
19061;BMP280;9663;48.996;8.334;2023-04-06T00:31:18;100583.06;;;6.60
19061;BMP280;9663;48.996;8.334;2023-04-06T00:33:44;100573.75;;;6.54
19061;BMP280;9663;48.996;8.334;2023-04-06T00:36:10;100576.19;;;6.51
19061;BMP280;9663;48.996;8.334;2023-04-06T00:38:36;100577.84;;;6.49
19061;BMP280;9663;48.996;8.334;2023-04-06T00:41:03;100578.66;;;6.47
19061;BMP280;9663;48.996;8.334;2023-04-06T00:43:29;100576.97;;;6.46
19061;BMP280;9663;48.996;8.334;2023-04-06T00:45:56;100586.19;;;6.45
19061;BMP280;9663;48.996;8.334;2023-04-06T00:48:22;100582.81;;;6.45
19061;BMP280;9663;48.996;8.334;2023-04-06T00:50:47;100576.94;;;6.44
19061;BMP280;9663;48.996;8.334;2023-04-06T00:53:13;100587.06;;;6.47
19061;BMP280;9663;48.996;8.334;2023-04-06T00:55:39;100582.09;;;6.50
19061;BMP280;9663;48.996;8.334;2023-04-06T00:58:05;100575.31;;;6.48
19061;BMP280;9663;48.996;8.334;2023-04-06T01:00:32;100572.03;;;6.52
19061;BMP280;9663;48.996;8.334;2023-04-06T01:02:58;100568.63;;;6.50
19061;BMP280;9663;48.996;8.334;2023-04-06T01:05:24;100580.44;;;6.52
19061;BMP280;9663;48.996;8.334;2023-04-06T01:07:50;100572.81;;;6.49
19061;BMP280;9663;48.996;8.334;2023-04-06T01:10:27;100570.31;;;6.51
19061;BMP280;9663;48.996;8.334;2023-04-06T01:12:53;100574.53;;;6.50
19061;BMP280;9663;48.996;8.334;2023-04-06T01:15:20;100568.63;;;6.51
19061;BMP280;9663;48.996;8.334;2023-04-06T01:17:46;100566.16;;;6.53
19061;BMP280;9663;48.996;8.334;2023-04-06T01:20:12;100565.25;;;6.49
19061;BMP280;9663;48.996;8.334;2023-04-06T01:22:38;100561.03;;;6.48
19061;BMP280;9663;48.996;8.334;2023-04-06T01:25:04;100564.44;;;6.50
19061;BMP280;9663;48.996;8.334;2023-04-06T01:27:31;100567.00;;;6.53
19061;BMP280;9663;48.996;8.334;2023-04-06T01:29:56;100552.72;;;6.52
19061;BMP280;9663;48.996;8.334;2023-04-06T01:32:22;100548.53;;;6.54
19061;BMP280;9663;48.996;8.334;2023-04-06T01:34:48;100548.53;;;6.54
19061;BMP280;9663;48.996;8.334;2023-04-06T01:37:14;100531.72;;;6.52
19061;BMP280;9663;48.996;8.334;2023-04-06T01:39:41;100544.31;;;6.53
19061;BMP280;9663;48.996;8.334;2023-04-06T01:42:07;100540.13;;;6.52
19061;BMP280;9663;48.996;8.334;2023-04-06T01:44:33;100530.88;;;6.53
19061;BMP280;9663;48.996;8.334;2023-04-06T01:46:58;100526.66;;;6.50
19061;BMP280;9663;48.996;8.334;2023-04-06T01:49:24;100539.22;;;6.49
19061;BMP280;9663;48.996;8.334;2023-04-06T01:51:51;100542.56;;;6.49
19061;BMP280;9663;48.996;8.334;2023-04-06T01:54:17;100537.47;;;6.46
19061;BMP280;9663;48.996;8.334;2023-04-06T01:56:43;100539.09;;;6.43
19061;BMP280;9663;48.996;8.334;2023-04-06T01:59:09;100532.25;;;6.35
19061;BMP280;9663;48.996;8.334;2023-04-06T02:01:34;100537.25;;;6.33
19061;BMP280;9663;48.996;8.334;2023-04-06T02:04:00;100528.69;;;6.24
19061;BMP280;9663;48.996;8.334;2023-04-06T02:06:26;100540.41;;;6.22
19061;BMP280;9663;48.996;8.334;2023-04-06T02:08:52;100534.38;;;6.14
19061;BMP280;9663;48.996;8.334;2023-04-06T02:11:17;100543.59;;;6.12
19061;BMP280;9663;48.996;8.334;2023-04-06T02:13:43;100533.34;;;6.01
19061;BMP280;9663;48.996;8.334;2023-04-06T02:16:09;100535.75;;;5.95
19061;BMP280;9663;48.996;8.334;2023-04-06T02:18:35;100529.72;;;5.88
19061;BMP280;9663;48.996;8.334;2023-04-06T02:21:00;100522.97;;;5.85
19061;BMP280;9663;48.996;8.334;2023-04-06T02:23:26;100531.25;;;5.81
19061;BMP280;9663;48.996;8.334;2023-04-06T02:25:52;100528.72;;;5.78
19061;BMP280;9663;48.996;8.334;2023-04-06T02:28:18;100521.09;;;5.75
19061;BMP280;9663;48.996;8.334;2023-04-06T02:30:43;100518.63;;;5.77
19061;BMP280;9663;48.996;8.334;2023-04-06T02:33:09;100519.31;;;5.73
19061;BMP280;9663;48.996;8.334;2023-04-06T02:35:35;100524.31;;;5.71
19061;BMP280;9663;48.996;8.334;2023-04-06T02:38:01;100520.91;;;5.68
19061;BMP280;9663;48.996;8.334;2023-04-06T02:40:26;100522.53;;;5.64
19061;BMP280;9663;48.996;8.334;2023-04-06T02:42:52;100519.06;;;5.59
19061;BMP280;9663;48.996;8.334;2023-04-06T02:45:18;100518.97;;;5.55
19061;BMP280;9663;48.996;8.334;2023-04-06T02:47:44;100519.78;;;5.52
19061;BMP280;9663;48.996;8.334;2023-04-06T02:50:10;100517.94;;;5.44
19061;BMP280;9663;48.996;8.334;2023-04-06T02:52:36;100520.34;;;5.40
19061;BMP280;9663;48.996;8.334;2023-04-06T02:55:02;100526.16;;;5.36
19061;BMP280;9663;48.996;8.334;2023-04-06T02:57:27;100531.97;;;5.35
19061;BMP280;9663;48.996;8.334;2023-04-06T02:59:53;100524.38;;;5.32
19061;BMP280;9663;48.996;8.334;2023-04-06T03:02:19;100515.06;;;5.28
19061;BMP280;9663;48.996;8.334;2023-04-06T03:04:45;100525.19;;;5.31
19061;BMP280;9663;48.996;8.334;2023-04-06T03:07:10;100520.16;;;5.32
19061;BMP280;9663;48.996;8.334;2023-04-06T03:09:39;100516.75;;;5.29
19061;BMP280;9663;48.996;8.334;2023-04-06T03:12:05;100516.72;;;5.27
19061;BMP280;9663;48.996;8.334;2023-04-06T03:14:31;100517.59;;;5.28
19061;BMP280;9663;48.996;8.334;2023-04-06T03:16:56;100513.28;;;5.24
19061;BMP280;9663;48.996;8.334;2023-04-06T03:19:22;100511.50;;;5.18
19061;BMP280;9663;48.996;8.334;2023-04-06T03:21:48;100509.03;;;5.20
19061;BMP280;9663;48.996;8.334;2023-04-06T03:24:13;100514.06;;;5.20
19061;BMP280;9663;48.996;8.334;2023-04-06T03:26:39;100517.44;;;5.22
19061;BMP280;9663;48.996;8.334;2023-04-06T03:29:05;100519.16;;;5.23
19061;BMP280;9663;48.996;8.334;2023-04-06T03:31:31;100511.56;;;5.21
19061;BMP280;9663;48.996;8.334;2023-04-06T03:33:57;100509.97;;;5.25
19061;BMP280;9663;48.996;8.334;2023-04-06T03:36:23;100510.03;;;5.28
19061;BMP280;9663;48.996;8.334;2023-04-06T03:38:49;100519.34;;;5.32
19061;BMP280;9663;48.996;8.334;2023-04-06T03:41:15;100509.25;;;5.30
19061;BMP280;9663;48.996;8.334;2023-04-06T03:43:41;100526.16;;;5.36
19061;BMP280;9663;48.996;8.334;2023-04-06T03:46:07;100522.84;;;5.40
19061;BMP280;9663;48.996;8.334;2023-04-06T03:48:32;100519.50;;;5.39
19061;BMP280;9663;48.996;8.334;2023-04-06T03:50:58;100527.13;;;5.42
19061;BMP280;9663;48.996;8.334;2023-04-06T03:53:23;100523.75;;;5.43
19061;BMP280;9663;48.996;8.334;2023-04-06T03:55:49;100523.75;;;5.43
19061;BMP280;9663;48.996;8.334;2023-04-06T03:58:15;100520.34;;;5.40
19061;BMP280;9663;48.996;8.334;2023-04-06T04:00:41;100521.97;;;5.38
19061;BMP280;9663;48.996;8.334;2023-04-06T04:03:07;100527.81;;;5.37
19061;BMP280;9663;48.996;8.334;2023-04-06T04:05:32;100538.75;;;5.37
19061;BMP280;9663;48.996;8.334;2023-04-06T04:07:58;100538.66;;;5.33
19061;BMP280;9663;48.996;8.334;2023-04-06T04:10:24;100532.72;;;5.29
19061;BMP280;9663;48.996;8.334;2023-04-06T04:12:50;100537.66;;;5.26
19061;BMP280;9663;48.996;8.334;2023-04-06T04:15:15;100548.56;;;5.27
19061;BMP280;9663;48.996;8.334;2023-04-06T04:17:41;100551.78;;;5.20
19061;BMP280;9663;48.996;8.334;2023-04-06T04:20:12;100561.81;;;5.18
19061;BMP280;9663;48.996;8.334;2023-04-06T04:22:38;100564.28;;;5.17
19061;BMP280;9663;48.996;8.334;2023-04-06T04:25:04;100559.13;;;5.12
19061;BMP280;9663;48.996;8.334;2023-04-06T04:27:29;100560.78;;;5.10
19061;BMP280;9663;48.996;8.334;2023-04-06T04:29:55;100548.97;;;5.07
19061;BMP280;9663;48.996;8.334;2023-04-06T04:32:21;100559.91;;;5.08
19061;BMP280;9663;48.996;8.334;2023-04-06T04:34:47;100569.13;;;5.08
19061;BMP280;9663;48.996;8.334;2023-04-06T04:37:12;100566.56;;;5.07
19061;BMP280;9663;48.996;8.334;2023-04-06T04:39:38;100556.47;;;5.05
19061;BMP280;9663;48.996;8.334;2023-04-06T04:42:04;100564.91;;;5.07
19061;BMP280;9663;48.996;8.334;2023-04-06T04:44:29;100564.97;;;5.10
19061;BMP280;9663;48.996;8.334;2023-04-06T04:46:55;100560.78;;;5.10
19061;BMP280;9663;48.996;8.334;2023-04-06T04:49:22;100565.84;;;5.12
19061;BMP280;9663;48.996;8.334;2023-04-06T04:51:47;100564.13;;;5.09
19061;BMP280;9663;48.996;8.334;2023-04-06T04:54:13;100578.41;;;5.12
19061;BMP280;9663;48.996;8.334;2023-04-06T04:56:39;100571.72;;;5.11
19061;BMP280;9663;48.996;8.334;2023-04-06T04:59:04;100562.38;;;5.07
19061;BMP280;9663;48.996;8.334;2023-04-06T05:01:30;100569.91;;;5.07
19061;BMP280;9663;48.996;8.334;2023-04-06T05:03:56;100570.78;;;5.09
19061;BMP280;9663;48.996;8.334;2023-04-06T05:06:22;100572.63;;;5.14
19061;BMP280;9663;48.996;8.334;2023-04-06T05:08:47;100577.66;;;5.14
19061;BMP280;9663;48.996;8.334;2023-04-06T05:11:13;100571.84;;;5.18
19061;BMP280;9663;48.996;8.334;2023-04-06T05:13:39;100584.63;;;5.27
19061;BMP280;9663;48.996;8.334;2023-04-06T05:16:05;100583.06;;;5.31
19061;BMP280;9663;48.996;8.334;2023-04-06T05:18:31;100580.53;;;5.32
19061;BMP280;9663;48.996;8.334;2023-04-06T05:20:57;100583.16;;;5.37
19061;BMP280;9663;48.996;8.334;2023-04-06T05:23:22;100589.13;;;5.42
19061;BMP280;9663;48.996;8.334;2023-04-06T05:25:48;100583.41;;;5.49
19061;BMP280;9663;48.996;8.334;2023-04-06T05:28:14;100599.56;;;5.58
19061;BMP280;9663;48.996;8.334;2023-04-06T05:30:43;100592.94;;;5.63
19061;BMP280;9663;48.996;8.334;2023-04-06T05:33:10;100586.31;;;5.66
19061;BMP280;9663;48.996;8.334;2023-04-06T05:35:36;100600.69;;;5.72
19061;BMP280;9663;48.996;8.334;2023-04-06T05:38:02;100596.69;;;5.78
19061;BMP280;9663;48.996;8.334;2023-04-06T05:40:28;100586.59;;;5.80
19061;BMP280;9663;48.996;8.334;2023-04-06T05:42:54;100595.94;;;5.84
19061;BMP280;9663;48.996;8.334;2023-04-06T05:45:19;100604.50;;;5.92
19061;BMP280;9663;48.996;8.334;2023-04-06T05:47:46;100600.53;;;6.04
19061;BMP280;9663;48.996;8.334;2023-04-06T05:50:15;100608.22;;;6.10
19061;BMP280;9663;48.996;8.334;2023-04-06T05:52:41;100604.06;;;6.13
19061;BMP280;9663;48.996;8.334;2023-04-06T05:55:09;100607.50;;;6.17
19061;BMP280;9663;48.996;8.334;2023-04-06T05:57:35;100605.13;;;6.24
19061;BMP280;9663;48.996;8.334;2023-04-06T06:00:01;100589.25;;;6.30
19061;BMP280;9663;48.996;8.334;2023-04-06T06:02:30;100602.91;;;6.40
19061;BMP280;9663;48.996;8.334;2023-04-06T06:04:56;100600.59;;;6.52
19061;BMP280;9663;48.996;8.334;2023-04-06T06:07:23;100591.44;;;6.57
19061;BMP280;9663;48.996;8.334;2023-04-06T06:09:49;100604.28;;;6.72
19061;BMP280;9663;48.996;8.334;2023-04-06T06:12:15;100599.38;;;6.81
19061;BMP280;9663;48.996;8.334;2023-04-06T06:14:42;100593.66;;;6.91
19061;BMP280;9663;48.996;8.334;2023-04-06T06:17:08;100588.78;;;7.01
19061;BMP280;9663;48.996;8.334;2023-04-06T06:19:34;100595.69;;;7.13
19061;BMP280;9663;48.996;8.334;2023-04-06T06:22:00;100604.22;;;7.22
19061;BMP280;9663;48.996;8.334;2023-04-06T06:24:28;100598.47;;;7.29
19061;BMP280;9663;48.996;8.334;2023-04-06T06:26:53;100580.94;;;7.39
19061;BMP280;9663;48.996;8.334;2023-04-06T06:29:19;100595.41;;;7.52
19061;BMP280;9663;48.996;8.334;2023-04-06T06:31:45;100591.34;;;7.64
19061;BMP280;9663;48.996;8.334;2023-04-06T06:34:10;100574.59;;;7.71
19061;BMP280;9663;48.996;8.334;2023-04-06T06:36:38;100578.09;;;7.80
19061;BMP280;9663;48.996;8.334;2023-04-06T06:39:04;100588.34;;;7.94
19061;BMP280;9663;48.996;8.334;2023-04-06T06:41:30;100583.41;;;8.06
19061;BMP280;9663;48.996;8.334;2023-04-06T06:43:55;100586.06;;;8.13
19061;BMP280;9663;48.996;8.334;2023-04-06T06:46:21;100592.97;;;8.26
19061;BMP280;9663;48.996;8.334;2023-04-06T06:48:47;100587.16;;;8.36
19061;BMP280;9663;48.996;8.334;2023-04-06T06:51:12;100594.84;;;8.46
19061;BMP280;9663;48.996;8.334;2023-04-06T06:53:38;100604.22;;;8.59
19061;BMP280;9663;48.996;8.334;2023-04-06T06:56:04;100594.19;;;8.68
19061;BMP280;9663;48.996;8.334;2023-04-06T06:58:30;100579.91;;;8.76
19061;BMP280;9663;48.996;8.334;2023-04-06T07:00:57;100582.56;;;8.86
19061;BMP280;9663;48.996;8.334;2023-04-06T07:03:23;100580.94;;;8.98
19061;BMP280;9663;48.996;8.334;2023-04-06T07:05:50;100575.09;;;9.08
19061;BMP280;9663;48.996;8.334;2023-04-06T07:08:22;100577.72;;;9.20
19061;BMP280;9663;48.996;8.334;2023-04-06T07:10:51;100572.72;;;9.29
19061;BMP280;9663;48.996;8.334;2023-04-06T07:13:22;100582.91;;;9.41
19061;BMP280;9663;48.996;8.334;2023-04-06T07:15:51;100574.50;;;9.51
19061;BMP280;9663;48.996;8.334;2023-04-06T07:18:21;100577.97;;;9.62
19061;BMP280;9663;48.996;8.334;2023-04-06T07:20:47;100573.75;;;9.71
19061;BMP280;9663;48.996;8.334;2023-04-06T07:23:13;100572.09;;;9.77
19061;BMP280;9663;48.996;8.334;2023-04-06T07:25:39;100574.69;;;9.91
19061;BMP280;9663;48.996;8.334;2023-04-06T07:28:04;100578.97;;;9.96
19061;BMP280;9663;48.996;8.334;2023-04-06T07:30:31;100576.47;;;10.01
19061;BMP280;9663;48.996;8.334;2023-04-06T07:32:57;100579.84;;;10.13
19061;BMP280;9663;48.996;8.334;2023-04-06T07:35:25;100567.22;;;10.21
19061;BMP280;9663;48.996;8.334;2023-04-06T07:37:55;100566.38;;;10.32
19061;BMP280;9663;48.996;8.334;2023-04-06T07:40:20;100569.78;;;10.47
19061;BMP280;9663;48.996;8.334;2023-04-06T07:42:46;100563.00;;;10.60
19061;BMP280;9663;48.996;8.334;2023-04-06T07:45:12;100574.88;;;10.78
19061;BMP280;9663;48.996;8.334;2023-04-06T07:47:38;100573.19;;;10.89
19061;BMP280;9663;48.996;8.334;2023-04-06T07:50:05;100577.38;;;11.05
19061;BMP280;9663;48.996;8.334;2023-04-06T07:52:31;100575.69;;;11.19
19061;BMP280;9663;48.996;8.334;2023-04-06T07:54:59;100573.94;;;11.28
19061;BMP280;9663;48.996;8.334;2023-04-06T07:57:25;100566.31;;;11.42
19061;BMP280;9663;48.996;8.334;2023-04-06T07:59:51;100576.47;;;11.55
19061;BMP280;9663;48.996;8.334;2023-04-06T08:02:17;100572.22;;;11.61
19061;BMP280;9663;48.996;8.334;2023-04-06T08:04:44;100575.53;;;11.74
19061;BMP280;9663;48.996;8.334;2023-04-06T08:07:10;100571.25;;;11.83
19061;BMP280;9663;48.996;8.334;2023-04-06T08:09:36;100576.28;;;11.96
19061;BMP280;9663;48.996;8.334;2023-04-06T08:12:01;100569.47;;;12.03
19061;BMP280;9663;48.996;8.334;2023-04-06T08:14:27;100575.34;;;12.14
19061;BMP280;9663;48.996;8.334;2023-04-06T08:16:53;100569.38;;;12.22
19061;BMP280;9663;48.996;8.334;2023-04-06T08:19:19;100565.91;;;12.31
19061;BMP280;9663;48.996;8.334;2023-04-06T08:21:45;100561.63;;;12.41
19061;BMP280;9663;48.996;8.334;2023-04-06T08:24:14;100564.06;;;12.53
19061;BMP280;9663;48.996;8.334;2023-04-06T08:26:40;100560.56;;;12.66
19061;BMP280;9663;48.996;8.334;2023-04-06T08:29:09;100552.84;;;12.75
19061;BMP280;9663;48.996;8.334;2023-04-06T08:31:36;100550.22;;;12.90
19061;BMP280;9663;48.996;8.334;2023-04-06T08:34:04;100561.88;;;13.12
19061;BMP280;9663;48.996;8.334;2023-04-06T08:36:31;100553.25;;;13.23
19061;BMP280;9663;48.996;8.334;2023-04-06T08:38:57;100556.53;;;13.38
19061;BMP280;9663;48.996;8.334;2023-04-06T08:41:23;100547.94;;;13.44
19061;BMP280;9663;48.996;8.334;2023-04-06T08:43:56;100547.84;;;13.53
19061;BMP280;9663;48.996;8.334;2023-04-06T08:46:24;100549.47;;;13.60
19061;BMP280;9663;48.996;8.334;2023-04-06T08:49:00;100551.03;;;13.71
19061;BMP280;9663;48.996;8.334;2023-04-06T08:51:28;100545.00;;;13.76
19061;BMP280;9663;48.996;8.334;2023-04-06T08:53:57;100554.22;;;13.88
19061;BMP280;9663;48.996;8.334;2023-04-06T08:56:25;100553.19;;;14.01
19061;BMP280;9663;48.996;8.334;2023-04-06T08:58:53;100553.91;;;14.11
19061;BMP280;9663;48.996;8.334;2023-04-06T09:01:30;100540.13;;;14.23
19061;BMP280;9663;48.996;8.334;2023-04-06T09:03:59;100549.25;;;14.40
19061;BMP280;9663;48.996;8.334;2023-04-06T09:06:26;100539.69;;;14.51
19061;BMP280;9663;48.996;8.334;2023-04-06T09:08:56;100543.69;;;14.67
19061;BMP280;9663;48.996;8.334;2023-04-06T09:11:23;100542.63;;;14.80
19061;BMP280;9663;48.996;8.334;2023-04-06T09:13:52;100541.63;;;14.88
19061;BMP280;9663;48.996;8.334;2023-04-06T09:16:19;100544.00;;;14.98
19061;BMP280;9663;48.996;8.334;2023-04-06T09:18:46;100538.75;;;15.06
19061;BMP280;9663;48.996;8.334;2023-04-06T09:21:13;100539.28;;;15.24
19061;BMP280;9663;48.996;8.334;2023-04-06T09:23:39;100538.16;;;15.40
19061;BMP280;9663;48.996;8.334;2023-04-06T09:26:15;100542.03;;;15.59
19061;BMP280;9663;48.996;8.334;2023-04-06T09:28:56;100536.00;;;15.63
19061;BMP280;9663;48.996;8.334;2023-04-06T09:31:29;100536.25;;;15.90
19061;BMP280;9663;48.996;8.334;2023-04-06T09:33:56;100525.34;;;16.21
19061;BMP280;9663;48.996;8.334;2023-04-06T09:36:34;100520.91;;;16.27
19061;BMP280;9663;48.996;8.334;2023-04-06T09:39:04;100520.16;;;16.24
19061;BMP280;9663;48.996;8.334;2023-04-06T09:41:36;100513.22;;;16.64
19061;BMP280;9663;48.996;8.334;2023-04-06T09:44:10;100514.34;;;16.52
19061;BMP280;9663;48.996;8.334;2023-04-06T09:46:38;100517.63;;;16.57
19061;BMP280;9663;48.996;8.334;2023-04-06T09:49:09;100516.50;;;16.68
19061;BMP280;9663;48.996;8.334;2023-04-06T09:51:44;100511.22;;;16.74
19061;BMP280;9663;48.996;8.334;2023-04-06T09:54:15;100521.97;;;16.88
19061;BMP280;9663;48.996;8.334;2023-04-06T09:59:58;100519.50;;;17.18
19061;BMP280;9663;48.996;8.334;2023-04-06T10:07:33;100520.13;;;17.56
19061;BMP280;9663;48.996;8.334;2023-04-06T10:10:02;100525.59;;;17.73
19061;BMP280;9663;48.996;8.334;2023-04-06T10:12:28;100511.72;;;17.80
19061;BMP280;9663;48.996;8.334;2023-04-06T10:14:55;100519.81;;;17.96
19061;BMP280;9663;48.996;8.334;2023-04-06T10:17:22;100516.97;;;18.04
19061;BMP280;9663;48.996;8.334;2023-04-06T10:23:19;100512.88;;;18.26
19061;BMP280;9663;48.996;8.334;2023-04-06T10:25:57;100513.44;;;18.36
19061;BMP280;9663;48.996;8.334;2023-04-06T10:28:24;100518.16;;;18.47
19061;BMP280;9663;48.996;8.334;2023-04-06T10:30:58;100505.94;;;18.55
19061;BMP280;9663;48.996;8.334;2023-04-06T10:33:24;100501.53;;;18.59
19061;BMP280;9663;48.996;8.334;2023-04-06T10:35:50;100507.84;;;18.75
19061;BMP280;9663;48.996;8.334;2023-04-06T10:38:16;100507.38;;;18.88
19061;BMP280;9663;48.996;8.334;2023-04-06T10:40:46;100498.34;;;19.02
19061;BMP280;9663;48.996;8.334;2023-04-06T10:43:22;100500.44;;;19.16
19061;BMP280;9663;48.996;8.334;2023-04-06T10:45:56;100499.06;;;19.30
19061;BMP280;9663;48.996;8.334;2023-04-06T10:48:22;100494.94;;;19.49
19061;BMP280;9663;48.996;8.334;2023-04-06T10:50:51;100483.03;;;19.69
19061;BMP280;9663;48.996;8.334;2023-04-06T10:53:26;100484.16;;;19.85
19061;BMP280;9663;48.996;8.334;2023-04-06T10:55:56;100480.31;;;19.95
19061;BMP280;9663;48.996;8.334;2023-04-06T10:58:27;100473.03;;;20.06
19061;BMP280;9663;48.996;8.334;2023-04-06T11:00:54;100469.19;;;20.15
19061;BMP280;9663;48.996;8.334;2023-04-06T11:03:21;100477.81;;;20.36
19061;BMP280;9663;48.996;8.334;2023-04-06T11:05:51;100458.19;;;20.53
19061;BMP280;9663;48.996;8.334;2023-04-06T11:08:31;100468.53;;;20.73
19061;BMP280;9663;48.996;8.334;2023-04-06T11:11:14;100464.16;;;20.95
19061;BMP280;9663;48.996;8.334;2023-04-06T11:13:44;100471.59;;;21.20
19061;BMP280;9663;48.996;8.334;2023-04-06T11:16:22;100466.34;;;21.42
19061;BMP280;9663;48.996;8.334;2023-04-06T11:18:55;100451.09;;;21.55
19061;BMP280;9663;48.996;8.334;2023-04-06T11:21:43;100454.22;;;21.62
19061;BMP280;9663;48.996;8.334;2023-04-06T11:26:54;100450.88;;;21.96
19061;BMP280;9663;48.996;8.334;2023-04-06T11:29:24;100433.28;;;22.39
19061;BMP280;9663;48.996;8.334;2023-04-06T11:32:01;100430.88;;;22.85
19061;BMP280;9663;48.996;8.334;2023-04-06T11:34:30;100428.16;;;23.20
19061;BMP280;9663;48.996;8.334;2023-04-06T11:36:59;100421.13;;;23.55
19061;BMP280;9663;48.996;8.334;2023-04-06T11:39:28;100411.53;;;23.87
19061;BMP280;9663;48.996;8.334;2023-04-06T11:42:00;100413.50;;;24.13
19061;BMP280;9663;48.996;8.334;2023-04-06T11:44:43;100410.72;;;24.31
19061;BMP280;9663;48.996;8.334;2023-04-06T11:47:12;100403.59;;;24.64
19061;BMP280;9663;48.996;8.334;2023-04-06T11:49:42;100416.31;;;24.82
19061;BMP280;9663;48.996;8.334;2023-04-06T11:52:19;100406.88;;;24.95
19061;BMP280;9663;48.996;8.334;2023-04-06T11:54:46;100396.03;;;25.02
19061;BMP280;9663;48.996;8.334;2023-04-06T11:57:13;100397.72;;;25.03
19061;BMP280;9663;48.996;8.334;2023-04-06T11:59:39;100411.44;;;25.19
19061;BMP280;9663;48.996;8.334;2023-04-06T12:02:05;100407.59;;;25.38
19061;BMP280;9663;48.996;8.334;2023-04-06T12:04:31;100399.06;;;25.50
19061;BMP280;9663;48.996;8.334;2023-04-06T12:06:58;100392.44;;;25.73
19061;BMP280;9663;48.996;8.334;2023-04-06T12:09:24;100397.28;;;25.91
19061;BMP280;9663;48.996;8.334;2023-04-06T12:11:50;100393.66;;;26.20
19061;BMP280;9663;48.996;8.334;2023-04-06T12:14:16;100393.13;;;26.53
19061;BMP280;9663;48.996;8.334;2023-04-06T12:16:42;100377.75;;;27.00
19061;BMP280;9663;48.996;8.334;2023-04-06T12:19:08;100379.53;;;27.59
19061;BMP280;9663;48.996;8.334;2023-04-06T12:21:36;100374.97;;;28.09
19061;BMP280;9663;48.996;8.334;2023-04-06T12:24:04;100374.13;;;28.54
19061;BMP280;9663;48.996;8.334;2023-04-06T12:26:30;100374.44;;;28.83
19061;BMP280;9663;48.996;8.334;2023-04-06T12:28:57;100363.63;;;28.99
19061;BMP280;9663;48.996;8.334;2023-04-06T12:31:28;100362.81;;;29.09
19061;BMP280;9663;48.996;8.334;2023-04-06T12:33:54;100359.25;;;29.10
19061;BMP280;9663;48.996;8.334;2023-04-06T12:36:20;100363.53;;;29.00
19061;BMP280;9663;48.996;8.334;2023-04-06T12:38:50;100360.66;;;28.71
19061;BMP280;9663;48.996;8.334;2023-04-06T12:41:17;100358.66;;;28.63
19061;BMP280;9663;48.996;8.334;2023-04-06T12:43:44;100347.72;;;28.69
19061;BMP280;9663;48.996;8.334;2023-04-06T12:46:10;100350.22;;;28.71
19061;BMP280;9663;48.996;8.334;2023-04-06T12:48:36;100359.59;;;28.84
19061;BMP280;9663;48.996;8.334;2023-04-06T12:51:05;100342.66;;;28.79
19061;BMP280;9663;48.996;8.334;2023-04-06T12:53:31;100344.31;;;28.69
19061;BMP280;9663;48.996;8.334;2023-04-06T12:55:58;100348.97;;;28.53
19061;BMP280;9663;48.996;8.334;2023-04-06T12:58:25;100346.81;;;28.36
19061;BMP280;9663;48.996;8.334;2023-04-06T13:01:06;100340.97;;;28.11
19061;BMP280;9663;48.996;8.334;2023-04-06T13:03:32;100355.91;;;27.96
19061;BMP280;9663;48.996;8.334;2023-04-06T13:06:00;100355.19;;;27.71
19061;BMP280;9663;48.996;8.334;2023-04-06T13:08:27;100347.50;;;27.34
19061;BMP280;9663;48.996;8.334;2023-04-06T13:10:53;100360.69;;;26.96
19061;BMP280;9663;48.996;8.334;2023-04-06T13:13:30;100349.84;;;26.64
19061;BMP280;9663;48.996;8.334;2023-04-06T13:16:03;100351.41;;;26.42
19061;BMP280;9663;48.996;8.334;2023-04-06T13:18:29;100346.38;;;26.27
19061;BMP280;9663;48.996;8.334;2023-04-06T13:20:56;100344.34;;;26.06
19061;BMP280;9663;48.996;8.334;2023-04-06T13:23:23;100345.34;;;25.91
19061;BMP280;9663;48.996;8.334;2023-04-06T13:26:01;100355.53;;;25.94
19061;BMP280;9663;48.996;8.334;2023-04-06T13:28:27;100338.75;;;26.12
19061;BMP280;9663;48.996;8.334;2023-04-06T13:30:54;100351.63;;;26.39
19061;BMP280;9663;48.996;8.334;2023-04-06T13:33:20;100343.88;;;26.25
19061;BMP280;9663;48.996;8.334;2023-04-06T13:35:47;100341.63;;;25.95
19061;BMP280;9663;48.996;8.334;2023-04-06T13:38:13;100340.22;;;25.77
19061;BMP280;9663;48.996;8.334;2023-04-06T13:40:40;100334.94;;;25.65
19061;BMP280;9663;48.996;8.334;2023-04-06T13:43:06;100335.25;;;25.60
19061;BMP280;9663;48.996;8.334;2023-04-06T13:45:32;100335.91;;;25.50
19061;BMP280;9663;48.996;8.334;2023-04-06T13:47:58;100333.72;;;25.30
19061;BMP280;9663;48.996;8.334;2023-04-06T13:50:28;100339.41;;;25.09
19061;BMP280;9663;48.996;8.334;2023-04-06T13:52:54;100332.06;;;24.88
19061;BMP280;9663;48.996;8.334;2023-04-06T13:55:21;100323.00;;;24.81
19061;BMP280;9663;48.996;8.334;2023-04-06T13:57:46;100330.50;;;24.71
19061;BMP280;9663;48.996;8.334;2023-04-06T14:00:13;100345.03;;;24.60
19061;BMP280;9663;48.996;8.334;2023-04-06T14:02:40;100335.50;;;24.47
19061;BMP280;9663;48.996;8.334;2023-04-06T14:05:06;100331.22;;;24.32
19061;BMP280;9663;48.996;8.334;2023-04-06T14:07:32;100334.88;;;24.28
19061;BMP280;9663;48.996;8.334;2023-04-06T14:09:58;100335.31;;;24.20
19061;BMP280;9663;48.996;8.334;2023-04-06T14:12:24;100337.88;;;24.06
19061;BMP280;9663;48.996;8.334;2023-04-06T14:14:50;100329.47;;;23.88
19061;BMP280;9663;48.996;8.334;2023-04-06T14:17:15;100327.34;;;23.80
19061;BMP280;9663;48.996;8.334;2023-04-06T14:19:41;100330.25;;;23.74
19061;BMP280;9663;48.996;8.334;2023-04-06T14:22:08;100329.84;;;23.66
19061;BMP280;9663;48.996;8.334;2023-04-06T14:24:34;100326.72;;;23.60
19061;BMP280;9663;48.996;8.334;2023-04-06T14:27:01;100327.34;;;23.50
19061;BMP280;9663;48.996;8.334;2023-04-06T14:29:28;100332.63;;;23.33
19061;BMP280;9663;48.996;8.334;2023-04-06T14:31:54;100318.97;;;22.99